sensor_id;sensor_type;location;lat;lon;timestamp;temperature;humidity
46117;DHT22;32591;48.102;11.772;2023-03-01T00:01:35;2.30;99.90
46117;DHT22;32591;48.102;11.772;2023-03-01T00:04:02;2.30;99.90
46117;DHT22;32591;48.102;11.772;2023-03-01T00:06:29;2.30;99.90
46117;DHT22;32591;48.102;11.772;2023-03-01T00:08:56;2.20;99.90
46117;DHT22;32591;48.102;11.772;2023-03-01T00:11:26;2.20;99.90
46117;DHT22;32591;48.102;11.772;2023-03-01T00:13:55;2.20;99.90
46117;DHT22;32591;48.102;11.772;2023-03-01T00:16:26;2.20;99.90
46117;DHT22;32591;48.102;11.772;2023-03-01T00:18:55;2.10;99.90
46117;DHT22;32591;48.102;11.772;2023-03-01T00:21:23;2.20;99.90
46117;DHT22;32591;48.102;11.772;2023-03-01T00:23:51;2.20;99.90
46117;DHT22;32591;48.102;11.772;2023-03-01T00:26:19;2.20;99.90
46117;DHT22;32591;48.102;11.772;2023-03-01T00:28:49;2.30;99.90
46117;DHT22;32591;48.102;11.772;2023-03-01T00:31:19;2.20;99.90
46117;DHT22;32591;48.102;11.772;2023-03-01T00:33:47;2.30;99.90
46117;DHT22;32591;48.102;11.772;2023-03-01T00:36:15;2.20;99.90
46117;DHT22;32591;48.102;11.772;2023-03-01T00:38:44;2.20;99.90
46117;DHT22;32591;48.102;11.772;2023-03-01T00:41:13;2.20;99.90
46117;DHT22;32591;48.102;11.772;2023-03-01T00:43:41;2.10;99.90
46117;DHT22;32591;48.102;11.772;2023-03-01T00:46:11;2.10;99.90
46117;DHT22;32591;48.102;11.772;2023-03-01T00:48:39;2.20;99.90
46117;DHT22;32591;48.102;11.772;2023-03-01T00:51:08;2.20;99.90
46117;DHT22;32591;48.102;11.772;2023-03-01T00:53:37;2.30;99.90
46117;DHT22;32591;48.102;11.772;2023-03-01T00:56:06;2.30;99.90
46117;DHT22;32591;48.102;11.772;2023-03-01T00:58:34;2.40;99.90
46117;DHT22;32591;48.102;11.772;2023-03-01T01:01:07;2.40;99.90
46117;DHT22;32591;48.102;11.772;2023-03-01T01:03:47;2.30;99.90
46117;DHT22;32591;48.102;11.772;2023-03-01T01:06:16;2.50;99.90
46117;DHT22;32591;48.102;11.772;2023-03-01T01:08:45;2.20;99.90
46117;DHT22;32591;48.102;11.772;2023-03-01T01:11:12;2.20;99.90
46117;DHT22;32591;48.102;11.772;2023-03-01T01:13:40;2.30;99.90
46117;DHT22;32591;48.102;11.772;2023-03-01T01:16:07;2.20;99.90
46117;DHT22;32591;48.102;11.772;2023-03-01T01:18:35;2.20;99.90
46117;DHT22;32591;48.102;11.772;2023-03-01T01:21:09;2.20;99.90
46117;DHT22;32591;48.102;11.772;2023-03-01T01:23:38;2.30;99.90
46117;DHT22;32591;48.102;11.772;2023-03-01T01:26:07;2.30;99.90
46117;DHT22;32591;48.102;11.772;2023-03-01T01:28:35;2.20;99.90
46117;DHT22;32591;48.102;11.772;2023-03-01T01:31:02;2.20;99.90
46117;DHT22;32591;48.102;11.772;2023-03-01T01:33:30;2.20;99.90
46117;DHT22;32591;48.102;11.772;2023-03-01T01:35:57;2.20;99.90
46117;DHT22;32591;48.102;11.772;2023-03-01T01:38:26;2.10;99.90
46117;DHT22;32591;48.102;11.772;2023-03-01T01:40:53;2.10;99.90
46117;DHT22;32591;48.102;11.772;2023-03-01T01:43:21;2.20;99.90
46117;DHT22;32591;48.102;11.772;2023-03-01T01:45:49;2.20;99.90
46117;DHT22;32591;48.102;11.772;2023-03-01T01:48:19;2.10;99.90
46117;DHT22;32591;48.102;11.772;2023-03-01T01:50:55;2.00;99.90
46117;DHT22;32591;48.102;11.772;2023-03-01T01:53:26;2.00;99.90
46117;DHT22;32591;48.102;11.772;2023-03-01T01:55:56;2.00;99.90
46117;DHT22;32591;48.102;11.772;2023-03-01T01:58:27;2.10;99.90
46117;DHT22;32591;48.102;11.772;2023-03-01T02:00:56;2.10;99.90
46117;DHT22;32591;48.102;11.772;2023-03-01T02:03:27;2.10;99.90
46117;DHT22;32591;48.102;11.772;2023-03-01T02:06:03;2.10;99.90
46117;DHT22;32591;48.102;11.772;2023-03-01T02:08:36;2.10;99.90
46117;DHT22;32591;48.102;11.772;2023-03-01T02:11:05;2.00;99.90
46117;DHT22;32591;48.102;11.772;2023-03-01T02:13:33;1.90;99.90
46117;DHT22;32591;48.102;11.772;2023-03-01T02:16:03;1.90;99.90
46117;DHT22;32591;48.102;11.772;2023-03-01T02:18:30;1.90;99.90
46117;DHT22;32591;48.102;11.772;2023-03-01T02:21:08;1.90;99.90
46117;DHT22;32591;48.102;11.772;2023-03-01T02:23:41;1.90;99.90
46117;DHT22;32591;48.102;11.772;2023-03-01T02:26:17;1.90;99.90
46117;DHT22;32591;48.102;11.772;2023-03-01T02:28:48;2.00;99.90
46117;DHT22;32591;48.102;11.772;2023-03-01T02:31:18;2.00;99.90
46117;DHT22;32591;48.102;11.772;2023-03-01T02:34:22;2.00;99.90
46117;DHT22;32591;48.102;11.772;2023-03-01T02:36:53;2.00;99.90
46117;DHT22;32591;48.102;11.772;2023-03-01T02:39:25;2.00;99.90
46117;DHT22;32591;48.102;11.772;2023-03-01T02:41:54;2.00;99.90
46117;DHT22;32591;48.102;11.772;2023-03-01T02:44:24;2.00;99.90
46117;DHT22;32591;48.102;11.772;2023-03-01T02:46:53;1.90;99.90
46117;DHT22;32591;48.102;11.772;2023-03-01T02:49:25;1.90;99.90
46117;DHT22;32591;48.102;11.772;2023-03-01T02:52:17;1.90;99.90
46117;DHT22;32591;48.102;11.772;2023-03-01T02:54:58;1.90;99.90
46117;DHT22;32591;48.102;11.772;2023-03-01T02:57:28;1.90;99.90
46117;DHT22;32591;48.102;11.772;2023-03-01T03:00:01;1.80;99.90
46117;DHT22;32591;48.102;11.772;2023-03-01T03:02:33;1.80;99.90
46117;DHT22;32591;48.102;11.772;2023-03-01T03:05:06;1.80;99.90
46117;DHT22;32591;48.102;11.772;2023-03-01T03:07:36;1.80;99.90
46117;DHT22;32591;48.102;11.772;2023-03-01T03:10:07;1.70;99.90
46117;DHT22;32591;48.102;11.772;2023-03-01T03:12:37;1.80;99.90
46117;DHT22;32591;48.102;11.772;2023-03-01T03:15:07;1.80;99.90
46117;DHT22;32591;48.102;11.772;2023-03-01T03:17:36;1.70;99.90
46117;DHT22;32591;48.102;11.772;2023-03-01T03:20:04;1.60;99.90
46117;DHT22;32591;48.102;11.772;2023-03-01T03:22:36;1.60;99.90
46117;DHT22;32591;48.102;11.772;2023-03-01T03:25:04;1.50;99.90
46117;DHT22;32591;48.102;11.772;2023-03-01T03:27:31;1.50;99.90
46117;DHT22;32591;48.102;11.772;2023-03-01T03:29:58;1.60;99.90
46117;DHT22;32591;48.102;11.772;2023-03-01T03:32:27;1.60;99.90
46117;DHT22;32591;48.102;11.772;2023-03-01T03:34:53;1.50;99.90
46117;DHT22;32591;48.102;11.772;2023-03-01T03:37:20;1.50;99.90
46117;DHT22;32591;48.102;11.772;2023-03-01T03:40:01;1.30;99.90
46117;DHT22;32591;48.102;11.772;2023-03-01T03:42:29;1.40;99.90
46117;DHT22;32591;48.102;11.772;2023-03-01T03:44:56;1.50;99.90
46117;DHT22;32591;48.102;11.772;2023-03-01T03:47:23;1.40;99.90
46117;DHT22;32591;48.102;11.772;2023-03-01T03:49:51;1.40;99.90
46117;DHT22;32591;48.102;11.772;2023-03-01T03:52:18;1.40;99.90
46117;DHT22;32591;48.102;11.772;2023-03-01T03:54:45;1.50;99.90
46117;DHT22;32591;48.102;11.772;2023-03-01T03:57:12;1.50;99.90
46117;DHT22;32591;48.102;11.772;2023-03-01T03:59:39;1.50;99.90
46117;DHT22;32591;48.102;11.772;2023-03-01T04:02:06;1.40;99.90
46117;DHT22;32591;48.102;11.772;2023-03-01T04:04:34;1.40;99.90
46117;DHT22;32591;48.102;11.772;2023-03-01T04:07:02;1.50;99.90
46117;DHT22;32591;48.102;11.772;2023-03-01T04:09:29;1.60;99.90
46117;DHT22;32591;48.102;11.772;2023-03-01T04:11:56;1.60;99.90
46117;DHT22;32591;48.102;11.772;2023-03-01T04:14:23;1.60;99.90
46117;DHT22;32591;48.102;11.772;2023-03-01T04:16:50;1.70;99.90
46117;DHT22;32591;48.102;11.772;2023-03-01T04:19:17;1.60;99.90
46117;DHT22;32591;48.102;11.772;2023-03-01T04:21:44;1.50;99.90
46117;DHT22;32591;48.102;11.772;2023-03-01T04:24:12;1.40;99.90
46117;DHT22;32591;48.102;11.772;2023-03-01T04:26:39;1.40;99.90
46117;DHT22;32591;48.102;11.772;2023-03-01T04:29:06;1.30;99.90
46117;DHT22;32591;48.102;11.772;2023-03-01T04:31:33;1.30;99.90
46117;DHT22;32591;48.102;11.772;2023-03-01T04:34:00;1.30;99.90
46117;DHT22;32591;48.102;11.772;2023-03-01T04:36:29;1.30;99.90
46117;DHT22;32591;48.102;11.772;2023-03-01T04:38:56;1.30;99.90
46117;DHT22;32591;48.102;11.772;2023-03-01T04:41:24;1.40;99.90
46117;DHT22;32591;48.102;11.772;2023-03-01T04:43:52;1.40;99.90
46117;DHT22;32591;48.102;11.772;2023-03-01T04:46:20;1.40;99.90
46117;DHT22;32591;48.102;11.772;2023-03-01T04:48:47;1.50;99.90
46117;DHT22;32591;48.102;11.772;2023-03-01T04:51:15;1.40;99.90
46117;DHT22;32591;48.102;11.772;2023-03-01T04:53:44;1.30;99.90
46117;DHT22;32591;48.102;11.772;2023-03-01T04:56:11;1.20;99.90
46117;DHT22;32591;48.102;11.772;2023-03-01T04:58:41;1.20;99.90
46117;DHT22;32591;48.102;11.772;2023-03-01T05:01:09;1.10;99.90
46117;DHT22;32591;48.102;11.772;2023-03-01T05:03:41;1.00;99.90
46117;DHT22;32591;48.102;11.772;2023-03-01T05:06:09;1.00;99.90
46117;DHT22;32591;48.102;11.772;2023-03-01T05:08:37;1.00;99.90
46117;DHT22;32591;48.102;11.772;2023-03-01T05:11:04;1.00;99.90
46117;DHT22;32591;48.102;11.772;2023-03-01T05:13:35;1.00;99.90
46117;DHT22;32591;48.102;11.772;2023-03-01T05:16:05;0.90;99.90
46117;DHT22;32591;48.102;11.772;2023-03-01T05:18:36;0.80;99.90
46117;DHT22;32591;48.102;11.772;2023-03-01T05:21:05;0.80;99.90
46117;DHT22;32591;48.102;11.772;2023-03-01T05:23:34;0.80;99.90
46117;DHT22;32591;48.102;11.772;2023-03-01T05:26:03;0.80;99.90
46117;DHT22;32591;48.102;11.772;2023-03-01T05:28:31;0.70;99.90
46117;DHT22;32591;48.102;11.772;2023-03-01T05:30:59;0.70;99.90
46117;DHT22;32591;48.102;11.772;2023-03-01T05:33:27;0.70;99.90
46117;DHT22;32591;48.102;11.772;2023-03-01T05:35:54;0.70;99.90
46117;DHT22;32591;48.102;11.772;2023-03-01T05:38:21;0.70;99.90
46117;DHT22;32591;48.102;11.772;2023-03-01T05:40:48;0.80;99.90
46117;DHT22;32591;48.102;11.772;2023-03-01T05:43:16;0.80;99.90
46117;DHT22;32591;48.102;11.772;2023-03-01T05:45:44;0.80;99.90
46117;DHT22;32591;48.102;11.772;2023-03-01T05:48:12;0.80;99.90
46117;DHT22;32591;48.102;11.772;2023-03-01T05:50:42;0.80;99.90
46117;DHT22;32591;48.102;11.772;2023-03-01T05:53:13;0.90;99.90
46117;DHT22;32591;48.102;11.772;2023-03-01T05:55:40;0.80;99.90
46117;DHT22;32591;48.102;11.772;2023-03-01T05:58:11;0.70;99.90
46117;DHT22;32591;48.102;11.772;2023-03-01T06:00:40;0.70;99.90
46117;DHT22;32591;48.102;11.772;2023-03-01T06:03:10;0.70;99.90
46117;DHT22;32591;48.102;11.772;2023-03-01T06:05:37;0.70;99.90
46117;DHT22;32591;48.102;11.772;2023-03-01T06:08:06;0.80;99.90
46117;DHT22;32591;48.102;11.772;2023-03-01T06:10:33;0.80;99.90
46117;DHT22;32591;48.102;11.772;2023-03-01T06:13:00;0.80;99.90
46117;DHT22;32591;48.102;11.772;2023-03-01T06:15:27;0.90;99.90
46117;DHT22;32591;48.102;11.772;2023-03-01T06:17:54;1.20;99.90
46117;DHT22;32591;48.102;11.772;2023-03-01T06:20:24;1.30;99.90
46117;DHT22;32591;48.102;11.772;2023-03-01T06:22:53;1.10;99.90
46117;DHT22;32591;48.102;11.772;2023-03-01T06:25:22;1.00;99.90
46117;DHT22;32591;48.102;11.772;2023-03-01T06:27:50;1.00;99.90
46117;DHT22;32591;48.102;11.772;2023-03-01T06:30:19;1.00;99.90
46117;DHT22;32591;48.102;11.772;2023-03-01T06:32:49;0.80;99.90
46117;DHT22;32591;48.102;11.772;2023-03-01T06:35:17;0.80;99.90
46117;DHT22;32591;48.102;11.772;2023-03-01T06:37:46;0.90;99.90
46117;DHT22;32591;48.102;11.772;2023-03-01T06:40:15;1.00;99.90
46117;DHT22;32591;48.102;11.772;2023-03-01T06:42:48;1.10;99.90
46117;DHT22;32591;48.102;11.772;2023-03-01T06:45:16;1.00;99.90
46117;DHT22;32591;48.102;11.772;2023-03-01T06:47:44;0.80;99.90
46117;DHT22;32591;48.102;11.772;2023-03-01T06:50:12;0.90;99.90
46117;DHT22;32591;48.102;11.772;2023-03-01T06:52:39;0.90;99.90
46117;DHT22;32591;48.102;11.772;2023-03-01T06:55:07;1.00;99.90
46117;DHT22;32591;48.102;11.772;2023-03-01T06:57:34;1.00;99.90
46117;DHT22;32591;48.102;11.772;2023-03-01T07:00:02;1.00;99.90
46117;DHT22;32591;48.102;11.772;2023-03-01T07:02:31;1.00;99.90
46117;DHT22;32591;48.102;11.772;2023-03-01T07:04:58;1.00;99.90
46117;DHT22;32591;48.102;11.772;2023-03-01T07:07:25;1.00;99.90
46117;DHT22;32591;48.102;11.772;2023-03-01T07:09:52;1.00;99.90
46117;DHT22;32591;48.102;11.772;2023-03-01T07:12:19;1.00;99.90
46117;DHT22;32591;48.102;11.772;2023-03-01T07:14:46;1.00;99.90
46117;DHT22;32591;48.102;11.772;2023-03-01T07:17:14;1.00;99.90
46117;DHT22;32591;48.102;11.772;2023-03-01T07:19:41;1.00;99.90
46117;DHT22;32591;48.102;11.772;2023-03-01T07:22:08;0.80;99.90
46117;DHT22;32591;48.102;11.772;2023-03-01T07:24:35;0.70;99.90
46117;DHT22;32591;48.102;11.772;2023-03-01T07:27:02;0.80;99.90
46117;DHT22;32591;48.102;11.772;2023-03-01T07:29:29;0.80;99.90
46117;DHT22;32591;48.102;11.772;2023-03-01T07:31:56;0.80;99.90
46117;DHT22;32591;48.102;11.772;2023-03-01T07:34:25;0.90;99.90
46117;DHT22;32591;48.102;11.772;2023-03-01T07:36:52;0.90;99.90
46117;DHT22;32591;48.102;11.772;2023-03-01T07:39:18;1.00;99.90
46117;DHT22;32591;48.102;11.772;2023-03-01T07:41:45;1.00;99.90
46117;DHT22;32591;48.102;11.772;2023-03-01T07:44:12;1.10;99.90
46117;DHT22;32591;48.102;11.772;2023-03-01T07:46:41;1.10;99.90
46117;DHT22;32591;48.102;11.772;2023-03-01T07:49:08;1.20;99.90
46117;DHT22;32591;48.102;11.772;2023-03-01T07:51:36;1.30;99.90
46117;DHT22;32591;48.102;11.772;2023-03-01T07:54:03;1.30;99.90
46117;DHT22;32591;48.102;11.772;2023-03-01T07:56:30;1.20;99.90
46117;DHT22;32591;48.102;11.772;2023-03-01T07:58:58;1.20;99.90
46117;DHT22;32591;48.102;11.772;2023-03-01T08:01:25;1.40;99.90
46117;DHT22;32591;48.102;11.772;2023-03-01T08:03:52;1.40;99.90
46117;DHT22;32591;48.102;11.772;2023-03-01T08:06:19;1.50;99.90
46117;DHT22;32591;48.102;11.772;2023-03-01T08:08:47;1.60;99.90
46117;DHT22;32591;48.102;11.772;2023-03-01T08:11:14;1.70;99.90
46117;DHT22;32591;48.102;11.772;2023-03-01T08:13:42;1.50;99.90
46117;DHT22;32591;48.102;11.772;2023-03-01T08:16:11;1.20;99.90
46117;DHT22;32591;48.102;11.772;2023-03-01T08:18:40;1.30;99.90
46117;DHT22;32591;48.102;11.772;2023-03-01T08:21:10;1.40;99.90
46117;DHT22;32591;48.102;11.772;2023-03-01T08:23:39;1.50;99.90
46117;DHT22;32591;48.102;11.772;2023-03-01T08:26:10;1.60;99.90
46117;DHT22;32591;48.102;11.772;2023-03-01T08:28:39;1.70;99.90
46117;DHT22;32591;48.102;11.772;2023-03-01T08:31:13;1.50;99.90
46117;DHT22;32591;48.102;11.772;2023-03-01T08:33:41;1.30;99.90
46117;DHT22;32591;48.102;11.772;2023-03-01T08:36:08;1.30;99.90
46117;DHT22;32591;48.102;11.772;2023-03-01T08:38:35;1.30;99.90
46117;DHT22;32591;48.102;11.772;2023-03-01T08:41:03;1.30;99.90
46117;DHT22;32591;48.102;11.772;2023-03-01T08:43:31;1.40;99.90
46117;DHT22;32591;48.102;11.772;2023-03-01T08:45:58;1.50;99.90
46117;DHT22;32591;48.102;11.772;2023-03-01T08:48:27;1.70;99.90
46117;DHT22;32591;48.102;11.772;2023-03-01T08:50:54;1.90;99.90
46117;DHT22;32591;48.102;11.772;2023-03-01T08:53:22;2.00;99.90
46117;DHT22;32591;48.102;11.772;2023-03-01T08:55:49;1.90;99.90
46117;DHT22;32591;48.102;11.772;2023-03-01T08:58:16;1.70;99.90
46117;DHT22;32591;48.102;11.772;2023-03-01T09:00:44;1.70;99.90
46117;DHT22;32591;48.102;11.772;2023-03-01T09:03:11;1.70;99.90
46117;DHT22;32591;48.102;11.772;2023-03-01T09:05:38;1.70;99.90
46117;DHT22;32591;48.102;11.772;2023-03-01T09:08:05;1.70;99.90
46117;DHT22;32591;48.102;11.772;2023-03-01T09:10:37;1.70;99.90
46117;DHT22;32591;48.102;11.772;2023-03-01T09:13:04;1.70;99.90
46117;DHT22;32591;48.102;11.772;2023-03-01T09:15:31;1.90;99.90
46117;DHT22;32591;48.102;11.772;2023-03-01T09:18:00;2.00;99.90
46117;DHT22;32591;48.102;11.772;2023-03-01T09:20:27;2.10;99.90
46117;DHT22;32591;48.102;11.772;2023-03-01T09:22:54;2.20;99.90
46117;DHT22;32591;48.102;11.772;2023-03-01T09:25:21;2.30;99.90
46117;DHT22;32591;48.102;11.772;2023-03-01T09:27:50;2.40;99.90
46117;DHT22;32591;48.102;11.772;2023-03-01T09:30:18;2.40;99.90
46117;DHT22;32591;48.102;11.772;2023-03-01T09:32:45;2.40;99.90
46117;DHT22;32591;48.102;11.772;2023-03-01T09:35:13;2.40;99.90
46117;DHT22;32591;48.102;11.772;2023-03-01T09:37:40;2.40;99.90
46117;DHT22;32591;48.102;11.772;2023-03-01T09:40:14;2.40;99.90
46117;DHT22;32591;48.102;11.772;2023-03-01T09:42:52;2.50;99.90
46117;DHT22;32591;48.102;11.772;2023-03-01T09:45:27;2.50;99.90
46117;DHT22;32591;48.102;11.772;2023-03-01T09:47:56;2.60;99.90
46117;DHT22;32591;48.102;11.772;2023-03-01T09:50:27;2.60;99.90
46117;DHT22;32591;48.102;11.772;2023-03-01T09:53:02;2.60;99.90
46117;DHT22;32591;48.102;11.772;2023-03-01T09:55:32;2.50;99.90
46117;DHT22;32591;48.102;11.772;2023-03-01T09:58:14;2.30;99.90
46117;DHT22;32591;48.102;11.772;2023-03-01T10:00:52;2.40;99.90
46117;DHT22;32591;48.102;11.772;2023-03-01T10:03:25;2.60;99.90
46117;DHT22;32591;48.102;11.772;2023-03-01T10:06:00;2.80;99.90
46117;DHT22;32591;48.102;11.772;2023-03-01T10:08:34;2.90;99.90
46117;DHT22;32591;48.102;11.772;2023-03-01T10:11:18;3.20;99.90
46117;DHT22;32591;48.102;11.772;2023-03-01T10:13:52;3.10;99.90
46117;DHT22;32591;48.102;11.772;2023-03-01T10:16:28;2.90;99.90
46117;DHT22;32591;48.102;11.772;2023-03-01T10:19:01;2.60;99.90
46117;DHT22;32591;48.102;11.772;2023-03-01T10:21:39;2.40;99.90
46117;DHT22;32591;48.102;11.772;2023-03-01T10:24:12;2.40;99.90
46117;DHT22;32591;48.102;11.772;2023-03-01T10:26:47;2.80;99.90
46117;DHT22;32591;48.102;11.772;2023-03-01T10:29:17;3.10;99.90
46117;DHT22;32591;48.102;11.772;2023-03-01T10:31:47;3.30;99.90
46117;DHT22;32591;48.102;11.772;2023-03-01T10:34:17;3.20;99.90
46117;DHT22;32591;48.102;11.772;2023-03-01T10:36:50;3.20;99.90
46117;DHT22;32591;48.102;11.772;2023-03-01T10:39:19;3.30;99.90
46117;DHT22;32591;48.102;11.772;2023-03-01T10:41:59;3.40;99.90
46117;DHT22;32591;48.102;11.772;2023-03-01T10:44:44;3.60;99.90
46117;DHT22;32591;48.102;11.772;2023-03-01T10:47:18;3.60;99.90
46117;DHT22;32591;48.102;11.772;2023-03-01T10:49:56;3.60;99.90
46117;DHT22;32591;48.102;11.772;2023-03-01T10:52:31;3.70;99.90
46117;DHT22;32591;48.102;11.772;2023-03-01T10:55:02;3.80;99.90
46117;DHT22;32591;48.102;11.772;2023-03-01T10:57:37;3.80;99.90
46117;DHT22;32591;48.102;11.772;2023-03-01T11:00:30;3.60;99.90
46117;DHT22;32591;48.102;11.772;2023-03-01T11:03:10;3.80;99.90
46117;DHT22;32591;48.102;11.772;2023-03-01T11:05:51;3.80;99.90
46117;DHT22;32591;48.102;11.772;2023-03-01T11:08:33;3.90;99.90
46117;DHT22;32591;48.102;11.772;2023-03-01T11:11:23;4.00;99.90
46117;DHT22;32591;48.102;11.772;2023-03-01T11:13:58;4.10;99.90
46117;DHT22;32591;48.102;11.772;2023-03-01T11:16:32;4.30;99.90
46117;DHT22;32591;48.102;11.772;2023-03-01T11:19:15;4.50;99.90
46117;DHT22;32591;48.102;11.772;2023-03-01T11:21:53;4.50;99.90
46117;DHT22;32591;48.102;11.772;2023-03-01T11:24:29;4.50;99.90
46117;DHT22;32591;48.102;11.772;2023-03-01T11:27:00;4.60;99.90
46117;DHT22;32591;48.102;11.772;2023-03-01T11:29:34;4.70;99.90
46117;DHT22;32591;48.102;11.772;2023-03-01T11:32:07;4.80;99.90
46117;DHT22;32591;48.102;11.772;2023-03-01T11:34:40;5.00;99.90
46117;DHT22;32591;48.102;11.772;2023-03-01T11:37:16;5.00;99.90
46117;DHT22;32591;48.102;11.772;2023-03-01T11:39:57;5.10;99.90
46117;DHT22;32591;48.102;11.772;2023-03-01T11:42:31;5.20;99.90
46117;DHT22;32591;48.102;11.772;2023-03-01T11:45:08;5.10;99.90
46117;DHT22;32591;48.102;11.772;2023-03-01T11:47:58;5.00;99.90
46117;DHT22;32591;48.102;11.772;2023-03-01T11:50:35;5.10;99.90
46117;DHT22;32591;48.102;11.772;2023-03-01T11:53:12;5.30;99.90
46117;DHT22;32591;48.102;11.772;2023-03-01T11:56:01;5.60;99.90
46117;DHT22;32591;48.102;11.772;2023-03-01T11:58:58;5.70;99.90
46117;DHT22;32591;48.102;11.772;2023-03-01T12:01:45;5.90;99.90
46117;DHT22;32591;48.102;11.772;2023-03-01T12:04:36;5.90;99.90
46117;DHT22;32591;48.102;11.772;2023-03-01T12:07:20;5.90;99.90
46117;DHT22;32591;48.102;11.772;2023-03-01T12:10:07;5.80;99.90
46117;DHT22;32591;48.102;11.772;2023-03-01T12:12:58;5.80;99.90
46117;DHT22;32591;48.102;11.772;2023-03-01T12:15:53;5.60;99.90
46117;DHT22;32591;48.102;11.772;2023-03-01T12:18:44;5.80;99.90
46117;DHT22;32591;48.102;11.772;2023-03-01T12:21:24;6.00;99.90
46117;DHT22;32591;48.102;11.772;2023-03-01T12:24:24;6.10;99.90
46117;DHT22;32591;48.102;11.772;2023-03-01T12:27:16;6.20;99.90
46117;DHT22;32591;48.102;11.772;2023-03-01T12:29:56;6.30;99.90
46117;DHT22;32591;48.102;11.772;2023-03-01T12:32:35;6.30;99.90
46117;DHT22;32591;48.102;11.772;2023-03-01T12:35:24;6.40;99.90
46117;DHT22;32591;48.102;11.772;2023-03-01T12:38:08;6.50;99.60
46117;DHT22;32591;48.102;11.772;2023-03-01T12:41:28;6.50;99.90
46117;DHT22;32591;48.102;11.772;2023-03-01T12:44:09;6.60;99.60
46117;DHT22;32591;48.102;11.772;2023-03-01T12:46:49;6.50;99.90
46117;DHT22;32591;48.102;11.772;2023-03-01T12:49:24;6.60;99.90
46117;DHT22;32591;48.102;11.772;2023-03-01T12:51:56;6.70;99.10
46117;DHT22;32591;48.102;11.772;2023-03-01T12:54:29;6.60;99.90
46117;DHT22;32591;48.102;11.772;2023-03-01T12:57:02;6.70;99.90
46117;DHT22;32591;48.102;11.772;2023-03-01T12:59:39;6.70;99.90
46117;DHT22;32591;48.102;11.772;2023-03-01T13:02:16;6.90;99.70
46117;DHT22;32591;48.102;11.772;2023-03-01T13:05:01;6.90;99.90
46117;DHT22;32591;48.102;11.772;2023-03-01T13:07:49;7.10;99.00
46117;DHT22;32591;48.102;11.772;2023-03-01T13:10:23;7.00;99.50
46117;DHT22;32591;48.102;11.772;2023-03-01T13:13:02;7.00;99.80
46117;DHT22;32591;48.102;11.772;2023-03-01T13:15:39;6.90;99.10
46117;DHT22;32591;48.102;11.772;2023-03-01T13:18:29;6.80;99.90
46117;DHT22;32591;48.102;11.772;2023-03-01T13:21:00;7.10;99.20
46117;DHT22;32591;48.102;11.772;2023-03-01T13:23:31;7.30;99.20
46117;DHT22;32591;48.102;11.772;2023-03-01T13:26:07;7.40;98.60
46117;DHT22;32591;48.102;11.772;2023-03-01T13:28:52;7.30;99.10
46117;DHT22;32591;48.102;11.772;2023-03-01T13:35:00;7.40;98.90
46117;DHT22;32591;48.102;11.772;2023-03-01T13:37:34;7.30;98.10
46117;DHT22;32591;48.102;11.772;2023-03-01T13:43:30;7.50;98.00
46117;DHT22;32591;48.102;11.772;2023-03-01T13:45:58;7.60;98.60
46117;DHT22;32591;48.102;11.772;2023-03-01T13:48:28;7.60;98.40
46117;DHT22;32591;48.102;11.772;2023-03-01T13:50:59;7.80;97.60
46117;DHT22;32591;48.102;11.772;2023-03-01T13:53:30;8.00;97.60
46117;DHT22;32591;48.102;11.772;2023-03-01T13:56:02;7.90;97.20
46117;DHT22;32591;48.102;11.772;2023-03-01T13:58:46;8.10;96.90
46117;DHT22;32591;48.102;11.772;2023-03-01T14:01:23;8.10;96.70
46117;DHT22;32591;48.102;11.772;2023-03-01T14:03:51;8.30;96.60
46117;DHT22;32591;48.102;11.772;2023-03-01T14:06:22;8.40;96.90
46117;DHT22;32591;48.102;11.772;2023-03-01T14:08:59;8.30;97.50
46117;DHT22;32591;48.102;11.772;2023-03-01T14:11:58;8.30;98.10
46117;DHT22;32591;48.102;11.772;2023-03-01T14:14:40;8.50;96.80
46117;DHT22;32591;48.102;11.772;2023-03-01T14:17:36;8.60;95.80
46117;DHT22;32591;48.102;11.772;2023-03-01T14:20:14;8.70;95.90
46117;DHT22;32591;48.102;11.772;2023-03-01T14:22:46;8.90;95.50
46117;DHT22;32591;48.102;11.772;2023-03-01T14:25:23;8.90;95.00
46117;DHT22;32591;48.102;11.772;2023-03-01T14:27:56;9.00;96.30
46117;DHT22;32591;48.102;11.772;2023-03-01T14:30:27;8.90;95.00
46117;DHT22;32591;48.102;11.772;2023-03-01T14:32:59;8.80;93.60
46117;DHT22;32591;48.102;11.772;2023-03-01T14:35:30;8.80;94.30
46117;DHT22;32591;48.102;11.772;2023-03-01T14:38:00;8.70;96.00
46117;DHT22;32591;48.102;11.772;2023-03-01T14:40:29;8.80;93.80
46117;DHT22;32591;48.102;11.772;2023-03-01T14:42:59;8.70;94.30
46117;DHT22;32591;48.102;11.772;2023-03-01T14:45:29;8.70;94.30
46117;DHT22;32591;48.102;11.772;2023-03-01T14:48:00;8.70;94.10
46117;DHT22;32591;48.102;11.772;2023-03-01T14:50:29;8.80;94.50
46117;DHT22;32591;48.102;11.772;2023-03-01T14:52:59;8.80;93.80
46117;DHT22;32591;48.102;11.772;2023-03-01T14:55:30;8.70;93.40
46117;DHT22;32591;48.102;11.772;2023-03-01T14:58:03;8.80;94.80
46117;DHT22;32591;48.102;11.772;2023-03-01T15:00:32;8.70;95.30
46117;DHT22;32591;48.102;11.772;2023-03-01T15:03:06;8.70;94.80
46117;DHT22;32591;48.102;11.772;2023-03-01T15:05:39;8.60;94.90
46117;DHT22;32591;48.102;11.772;2023-03-01T15:08:17;8.60;95.20
46117;DHT22;32591;48.102;11.772;2023-03-01T15:10:57;8.60;96.10
46117;DHT22;32591;48.102;11.772;2023-03-01T15:13:29;8.70;95.30
46117;DHT22;32591;48.102;11.772;2023-03-01T15:16:03;8.80;95.50
46117;DHT22;32591;48.102;11.772;2023-03-01T15:18:35;8.60;99.90
46117;DHT22;32591;48.102;11.772;2023-03-01T15:21:08;8.40;96.00
46117;DHT22;32591;48.102;11.772;2023-03-01T15:23:38;8.30;96.50
46117;DHT22;32591;48.102;11.772;2023-03-01T15:26:06;8.30;97.00
46117;DHT22;32591;48.102;11.772;2023-03-01T15:28:50;8.40;96.70
46117;DHT22;32591;48.102;11.772;2023-03-01T15:31:22;8.40;95.80
46117;DHT22;32591;48.102;11.772;2023-03-01T15:33:50;8.40;96.60
46117;DHT22;32591;48.102;11.772;2023-03-01T15:36:33;8.40;98.20
46117;DHT22;32591;48.102;11.772;2023-03-01T15:39:05;8.50;98.80
46117;DHT22;32591;48.102;11.772;2023-03-01T15:41:48;8.70;96.20
46117;DHT22;32591;48.102;11.772;2023-03-01T15:44:16;8.80;95.80
46117;DHT22;32591;48.102;11.772;2023-03-01T15:46:46;8.80;96.00
46117;DHT22;32591;48.102;11.772;2023-03-01T15:49:27;8.90;96.70
46117;DHT22;32591;48.102;11.772;2023-03-01T15:52:00;9.10;96.40
46117;DHT22;32591;48.102;11.772;2023-03-01T15:54:29;9.20;95.90
46117;DHT22;32591;48.102;11.772;2023-03-01T15:56:55;9.30;95.80
46117;DHT22;32591;48.102;11.772;2023-03-01T15:59:23;9.30;95.40
46117;DHT22;32591;48.102;11.772;2023-03-01T16:01:50;9.30;95.70
46117;DHT22;32591;48.102;11.772;2023-03-01T16:04:18;9.20;95.60
46117;DHT22;32591;48.102;11.772;2023-03-01T16:06:49;9.10;97.20